createdAt,value
2023-01-08T04:55:46.457Z,99291
2023-01-08T05:01:37.926Z,99291
2023-01-08T05:07:29.728Z,99293
2023-01-08T05:13:20.701Z,99261
2023-01-08T05:19:12.991Z,99260
2023-01-08T05:25:05.514Z,99253
2023-01-08T05:30:56.857Z,99252
2023-01-08T05:36:48.664Z,99260
2023-01-08T05:42:40.039Z,99257
2023-01-08T05:48:30.745Z,99262
2023-01-08T05:54:22.336Z,99262
2023-01-08T06:00:13.186Z,99244
2023-01-08T06:06:04.613Z,99249
2023-01-08T06:11:55.928Z,99261
2023-01-08T06:17:47.891Z,99261
2023-01-08T06:23:39.149Z,99257
2023-01-08T06:29:31.005Z,99262
2023-01-08T06:35:22.257Z,99262
2023-01-08T06:41:13.303Z,99279
2023-01-08T06:47:04.652Z,99280
2023-01-08T06:52:57.051Z,99286
2023-01-08T06:58:48.091Z,99293
2023-01-08T07:04:39.101Z,99288
2023-01-08T07:10:30.032Z,99302
2023-01-08T07:16:21.571Z,99287
2023-01-08T07:22:16.242Z,99297
2023-01-08T07:28:07.248Z,99292
2023-01-08T07:33:57.696Z,99283
2023-01-08T07:39:52.970Z,99276
2023-01-08T07:45:43.723Z,99283
2023-01-08T07:51:34.862Z,99294
2023-01-08T07:57:26.981Z,99294
2023-01-08T08:03:19.050Z,99295
2023-01-08T08:09:11.277Z,99296
2023-01-08T08:15:03.524Z,99292
2023-01-08T08:20:54.739Z,99294
2023-01-08T08:26:45.490Z,99288
2023-01-08T08:32:36.248Z,99300
2023-01-08T08:38:28.203Z,99293
2023-01-08T08:44:18.989Z,99299
2023-01-08T08:50:10.582Z,99284
2023-01-08T08:56:00.125Z,99278
2023-01-08T09:01:51.764Z,99263
2023-01-08T09:07:43.795Z,99250
2023-01-08T09:13:34.404Z,99246
2023-01-08T09:19:27.581Z,99243
2023-01-08T09:25:17.928Z,99250
2023-01-08T09:31:07.933Z,99249
2023-01-08T09:37:00.126Z,99239
2023-01-08T09:42:50.689Z,99247
2023-01-08T09:48:41.349Z,99242
2023-01-08T09:54:33.553Z,99244
2023-01-08T10:00:24.541Z,99241
2023-01-08T10:06:15.185Z,99241
2023-01-08T10:12:05.168Z,99238
2023-01-08T10:17:56.361Z,99233
2023-01-08T10:23:47.890Z,99213
2023-01-08T10:29:38.502Z,99200
2023-01-08T10:35:29.487Z,99183
2023-01-08T10:41:22.070Z,99177
2023-01-08T10:48:21.867Z,99176
2023-01-08T10:54:11.508Z,99157
2023-01-08T11:00:02.035Z,99150
2023-01-08T11:05:53.241Z,99145
2023-01-08T11:11:43.977Z,99137
2023-01-08T11:17:35.464Z,99127
2023-01-08T11:23:26.125Z,99117
2023-01-08T11:29:16.754Z,99111
2023-01-08T11:35:07.920Z,99106
2023-01-08T11:40:59.013Z,99101
2023-01-08T11:46:48.592Z,99082
2023-01-08T11:52:40.095Z,99085
2023-01-08T11:58:32.239Z,99087
2023-01-08T12:04:22.839Z,99080
2023-01-08T12:10:13.292Z,99064
2023-01-08T12:16:03.571Z,99067
2023-01-08T12:21:54.557Z,99061
2023-01-08T12:27:59.758Z,99051
2023-01-08T12:33:48.572Z,99060
2023-01-08T12:53:40.737Z,99041
2023-01-08T12:59:27.101Z,99045
2023-01-08T13:05:17.580Z,99037
2023-01-08T13:11:07.536Z,99024
2023-01-08T13:16:58.182Z,99023
2023-01-08T13:22:49.060Z,99015
2023-01-08T13:28:39.837Z,99012
2023-01-08T13:36:55.209Z,99004
2023-01-08T13:48:38.442Z,98995
2023-01-08T13:55:34.985Z,98984
2023-01-08T14:01:26.873Z,98977
2023-01-08T14:07:18.104Z,98971
2023-01-08T14:13:10.114Z,98968
2023-01-08T14:19:01.983Z,98953
2023-01-08T14:24:56.868Z,98950
2023-01-08T14:30:48.051Z,98950
2023-01-08T14:36:39.054Z,98947
2023-01-08T14:42:29.967Z,98955
2023-01-08T14:48:20.980Z,98942
2023-01-08T14:54:12.581Z,98929
2023-01-08T15:00:05.234Z,98931
2023-01-08T15:05:55.789Z,98918
2023-01-08T15:12:02.035Z,98927
2023-01-08T15:17:52.782Z,98921
2023-01-08T15:24:02.998Z,98908
2023-01-08T15:29:55.361Z,98897
2023-01-08T15:35:44.520Z,98896
2023-01-08T15:41:44.973Z,98893
2023-01-08T15:47:50.170Z,98890
2023-01-08T15:53:48.769Z,98886
2023-01-08T15:59:43.745Z,98901
2023-01-08T16:05:41.791Z,98888
2023-01-08T16:11:35.344Z,98880
2023-01-08T16:17:25.368Z,98876
2023-01-08T16:23:16.771Z,98869
2023-01-08T16:29:09.023Z,98870
2023-01-08T16:34:59.916Z,98877
2023-01-08T16:40:50.772Z,98873
2023-01-08T16:46:44.896Z,98859
2023-01-08T16:52:35.665Z,98861
2023-01-08T16:58:32.857Z,98860
2023-01-08T17:04:22.817Z,98845
2023-01-08T17:10:16.181Z,98831
2023-01-08T17:16:07.991Z,98802
2023-01-08T17:22:02.175Z,98799
2023-01-08T17:27:56.351Z,98806
2023-01-08T17:33:49.025Z,98798
2023-01-08T17:39:39.681Z,98782
2023-01-08T17:45:36.122Z,98791
2023-01-08T17:51:30.558Z,98792
2023-01-08T17:57:24.332Z,98786
2023-01-08T18:03:17.585Z,98789
2023-01-08T18:09:10.257Z,98779
2023-01-08T18:15:01.760Z,98777
2023-01-08T18:20:55.045Z,98764
2023-01-08T18:26:46.379Z,98762
2023-01-08T18:32:37.188Z,98757
2023-01-08T18:38:28.326Z,98748
2023-01-08T18:44:20.689Z,98737
2023-01-08T18:50:11.544Z,98721
2023-01-08T18:56:02.816Z,98713
2023-01-08T19:01:54.714Z,98713
2023-01-08T19:07:45.869Z,98701
2023-01-08T19:13:38.163Z,98705
2023-01-08T19:19:31.488Z,98688
2023-01-08T19:25:24.913Z,98684
2023-01-08T19:31:18.733Z,98672
2023-01-08T19:37:09.691Z,98671
2023-01-08T19:43:03.517Z,98663
2023-01-08T19:49:01.865Z,98651
2023-01-08T19:54:52.689Z,98634
2023-01-08T20:00:50.809Z,98639
2023-01-08T20:06:42.623Z,98612
2023-01-08T20:12:33.743Z,98600
2023-01-08T20:18:28.019Z,98596
2023-01-08T20:24:18.490Z,98581
2023-01-08T20:30:09.070Z,98581
2023-01-08T20:36:01.264Z,98573
2023-01-08T20:42:08.458Z,98562
2023-01-08T20:48:18.739Z,98548
2023-01-08T20:54:09.572Z,98542
2023-01-08T21:00:00.804Z,98538
2023-01-08T21:05:53.707Z,98539
2023-01-08T21:11:44.186Z,98527
2023-01-08T21:17:34.708Z,98512
2023-01-08T21:23:25.819Z,98508
2023-01-08T21:29:19.357Z,98490
2023-01-08T21:35:10.266Z,98496
2023-01-08T21:41:01.665Z,98490
2023-01-08T21:46:53.565Z,98480
2023-01-08T21:52:43.643Z,98471
2023-01-08T21:58:33.981Z,98467
2023-01-08T22:04:34.683Z,98454
2023-01-08T22:10:24.803Z,98452
2023-01-08T22:16:13.119Z,98437
2023-01-08T22:22:04.795Z,98437
2023-01-08T22:27:59.272Z,98428
2023-01-08T22:33:52.707Z,98430
2023-01-08T22:39:44.334Z,98424
2023-01-08T22:45:34.901Z,98426
2023-01-08T22:51:29.396Z,98428
2023-01-08T22:57:20.060Z,98425
2023-01-08T23:03:10.957Z,98428
2023-01-08T23:09:00.778Z,98442
2023-01-08T23:14:52.407Z,98440
2023-01-08T23:20:48.387Z,98439
2023-01-08T23:26:40.651Z,98444
2023-01-08T23:32:31.873Z,98448
2023-01-08T23:38:24.036Z,98443
2023-01-08T23:44:17.097Z,98440
2023-01-08T23:50:09.836Z,98447
2023-01-08T23:55:59.946Z,98446
